Elizabeth Blieler — WDG2711 — position and weather

sailwx.info

Track history (hours):
 
Tides and Currents Weather Stations Pressure Air Temp Water Temp Dewpoint Dewpoint Depression Visibility Wind Speed Wind Dir Waves Ship Positions

Elizabeth Blieler

Owner: Kelly O Towing LLC, Hull, TX. More information available from US FCC via Universal Licensing System and Coast Guard Vessel Documentation Center.

Last reported at 2017-Dec-15 01:01 UTC. Time now 2018-Feb-22 19:20 UTC.
Position N 29°38' W 091°21'.
Warning: this ship's position is months out of date.

MMSI: 367518460.

Date/timePositionNaut miles runAvg speedWind from/ knotsBaromVisibWave heightAir tempDewpointWater temp
2017-Dec-15 01:01N 29°38' W 091°21'33 4.6
2017-Dec-14 17:46N 29°51' W 091°57'1 5.8
2017-Dec-14 17:31N 29°50' W 091°58'3 5.9
2017-Dec-14 17:01N 29°49' W 092°02'3 5.7
2017-Dec-14 16:30N 29°48' W 092°05'3 5.6
2017-Dec-14 16:00N 29°47' W 092°08'6 4.6
2017-Dec-14 14:46N 29°48' W 092°14'1 5.5
2017-Dec-14 14:30N 29°48' W 092°16'3 5.3
2017-Dec-14 14:00N 29°50' W 092°18'13 4.7
2017-Dec-14 11:13N 29°54' W 092°32'2 5.4
2017-Dec-14 10:48N 29°55' W 092°35'19 4.0
2017-Dec-14 06:05N 29°56' W 092°57'1 4.1
2017-Dec-14 05:49N 29°56' W 092°58'1 4.9
2017-Dec-14 05:30N 29°56' W 092°60'3 5.2
2017-Dec-14 05:01N 29°56' W 093°03'3 5.3
2017-Dec-14 04:30N 29°56' W 093°06'3 5.3
2017-Dec-14 04:00N 29°56' W 093°09'3 5.1
2017-Dec-14 03:30N 29°58' W 093°11'2 4.3
2017-Dec-14 03:00N 29°59' W 093°13'2 4.1
2017-Dec-14 02:30N 30°01' W 093°14'2 4.1
2017-Dec-14 02:00N 30°03' W 093°16'2 4.9
2017-Dec-14 01:31N 30°05' W 093°17'1 2.6
2017-Dec-14 01:00N 30°06' W 093°18'1 1.1
2017-Dec-14 00:30N 30°06' W 093°18'0 0.0
2017-Dec-14 00:00N 30°06' W 093°18'0 0.0
2017-Dec-13 23:31N 30°06' W 093°18'0 0.0
2017-Dec-13 23:00N 30°06' W 093°18'0 0.0
2017-Dec-13 22:30N 30°06' W 093°18'0 0.0
2017-Dec-13 22:00N 30°06' W 093°18'0 0.0
2017-Dec-13 21:30N 30°06' W 093°18'0 0.0
2017-Dec-13 21:01N 30°06' W 093°18'0 0.0
2017-Dec-13 20:31N 30°06' W 093°18'0 0.0
2017-Dec-13 20:01N 30°06' W 093°18'0 0.1
2017-Dec-13 19:31N 30°06' W 093°18'0 0.0
2017-Dec-13 19:00N 30°06' W 093°18'0 0.0
2017-Dec-13 18:31N 30°06' W 093°18'0 0.0
2017-Dec-13 18:00N 30°06' W 093°18'0 0.0
2017-Dec-13 17:31N 30°06' W 093°18'0 0.0
2017-Dec-13 17:00N 30°06' W 093°18'0 0.0
2017-Dec-13 16:30N 30°06' W 093°18'0 0.0
2017-Dec-13 16:00N 30°06' W 093°18'0 0.0
2017-Dec-13 15:30N 30°06' W 093°18'0 0.0
2017-Dec-13 15:00N 30°06' W 093°18'0 0.0
2017-Dec-13 14:30N 30°06' W 093°18'0 0.0
2017-Dec-13 14:00N 30°06' W 093°18'0 0.0
2017-Dec-13 13:30N 30°06' W 093°18'0 0.0
2017-Dec-13 13:01N 30°06' W 093°18'0 0.0
2017-Dec-13 12:30N 30°06' W 093°18'0 0.1
2017-Dec-13 12:00N 30°06' W 093°18'0 0.1
2017-Dec-13 11:30N 30°06' W 093°18'0 0.0
2017-Dec-13 11:01N 30°06' W 093°18'0 0.0
2017-Dec-13 10:31N 30°06' W 093°18'0 0.0
2017-Dec-13 10:00N 30°06' W 093°18'0 0.0
2017-Dec-13 09:30N 30°06' W 093°18'0 0.1
2017-Dec-13 09:00N 30°06' W 093°18'0 0.0
2017-Dec-13 08:31N 30°06' W 093°18'0 0.1
2017-Dec-13 08:01N 30°06' W 093°18'0 0.1
2017-Dec-13 07:30N 30°06' W 093°18'0 0.0
2017-Dec-13 07:00N 30°06' W 093°18'0 0.1
2017-Dec-13 06:30N 30°06' W 093°18'0 0.0
2017-Dec-13 06:01N 30°06' W 093°18'0 0.0
2017-Dec-13 05:30N 30°06' W 093°18'0 0.0
2017-Dec-13 05:01N 30°06' W 093°18'0 0.0
2017-Dec-13 04:30N 30°06' W 093°18'0 0.0
2017-Dec-13 04:00N 30°06' W 093°18'0 0.0
2017-Dec-13 03:31N 30°06' W 093°18'0 0.0
2017-Dec-13 03:01N 30°06' W 093°18'0 0.1
2017-Dec-13 02:30N 30°06' W 093°18'0 0.0
2017-Dec-13 02:01N 30°06' W 093°18'0 0.0
2017-Dec-13 01:31N 30°06' W 093°18'0 0.0
2017-Dec-13 01:01N 30°06' W 093°18'0 0.0
2017-Dec-13 00:31N 30°06' W 093°18'0 0.0
2017-Dec-13 00:01N 30°06' W 093°18'0 0.0
2017-Dec-12 23:30N 30°06' W 093°18'1 2.3
2017-Dec-12 23:00N 30°06' W 093°19'3 5.5
2017-Dec-12 22:31N 30°04' W 093°22'2 3.9
2017-Dec-12 22:00N 30°04' W 093°24'2 4.4
2017-Dec-12 21:30N 30°04' W 093°26'3 5.4
2017-Dec-12 21:00N 30°04' W 093°30'20 0.6
2017-Dec-11 09:13N 29°58' W 093°52'0 0.0
2017-Dec-11 08:58N 29°58' W 093°52'0 0.0
2017-Dec-11 08:30N 29°58' W 093°52'0 0.0
2017-Dec-11 07:59N 29°58' W 093°52'0 0.0
2017-Dec-11 07:28N 29°58' W 093°52'0 0.0
2017-Dec-11 07:00N 29°58' W 093°52'0 0.0
2017-Dec-11 06:28N 29°58' W 093°52'0 0.0
2017-Dec-11 05:57N 29°58' W 093°52'0 0.0
2017-Dec-11 05:28N 29°58' W 093°52'0 0.0
2017-Dec-11 05:00N 29°58' W 093°52'3 0.3
2017-Dec-10 16:14N 29°55' W 093°53'2 7.9
2017-Dec-10 16:00N 29°56' W 093°52'2 3.1
2017-Dec-10 15:30N 29°58' W 093°52'0 0.0
2017-Dec-10 15:01N 29°58' W 093°52'0 0.0
2017-Dec-10 14:30N 29°58' W 093°52'0 0.0
2017-Dec-10 13:46N 29°58' W 093°52'0 0.0
2017-Dec-10 13:30N 29°58' W 093°52'0 0.0
2017-Dec-10 12:58N 29°58' W 093°52'0 0.0
2017-Dec-10 12:23N 29°58' W 093°52'9 0.7
2017-Dec-09 23:59N 30°03' W 093°44'2 4.2
2017-Dec-09 23:26N 30°04' W 093°41'2 4.6
2017-Dec-09 23:00N 30°04' W 093°39'2 4.7
2017-Dec-09 22:30N 30°04' W 093°36'2 3.9
2017-Dec-09 22:00N 30°04' W 093°34'2 3.8
2017-Dec-09 21:31N 30°04' W 093°32'2 3.8
2017-Dec-09 21:01N 30°04' W 093°30'2 3.8
2017-Dec-09 20:31N 30°04' W 093°27'2 3.7
2017-Dec-09 20:01N 30°04' W 093°25'2 3.7
2017-Dec-09 19:31N 30°04' W 093°23'2 3.3
2017-Dec-09 19:01N 30°04' W 093°21'2 3.7
2017-Dec-09 18:31N 30°05' W 093°20'2 3.5
2017-Dec-09 18:01N 30°06' W 093°18'1 2.2
2017-Dec-09 17:30N 30°05' W 093°17'2 4.2
2017-Dec-09 17:01N 30°04' W 093°16'1 2.5
2017-Dec-09 16:31N 30°02' W 093°15'2 3.7
2017-Dec-09 16:01N 30°01' W 093°14'2 3.8
2017-Dec-09 15:30N 29°59' W 093°13'2 4.3
2017-Dec-09 15:01N 29°58' W 093°11'2 4.3
2017-Dec-09 14:31N 29°56' W 093°10'2 4.1
2017-Dec-09 14:00N 29°56' W 093°07'2 4.1
2017-Dec-09 13:30N 29°56' W 093°05'31 3.6
2017-Dec-09 04:59N 29°54' W 092°29'2 3.6
2017-Dec-09 04:26N 29°54' W 092°27'2 3.7
2017-Dec-09 03:57N 29°53' W 092°25'1 3.3
2017-Dec-09 03:31N 29°53' W 092°23'2 3.5
2017-Dec-09 02:49N 29°51' W 092°22'1 3.6
2017-Dec-09 02:31N 29°51' W 092°21'1 2.1
2017-Dec-09 02:01N 29°50' W 092°19'1 2.5
2017-Dec-09 01:31N 29°50' W 092°18'2 3.0
2017-Dec-09 01:01N 29°49' W 092°17'2 3.1
2017-Dec-09 00:31N 29°48' W 092°15'2 3.4
2017-Dec-09 00:01N 29°48' W 092°14'1 2.4
2017-Dec-08 23:31N 29°47' W 092°12'0 0.3
2017-Dec-08 23:00N 29°47' W 092°12'1 1.4
2017-Dec-08 22:31N 29°47' W 092°11'1 2.2
2017-Dec-08 22:01N 29°47' W 092°10'2 3.0
2017-Dec-08 21:31N 29°47' W 092°08'2 3.6
2017-Dec-08 21:01N 29°48' W 092°06'2 3.4
2017-Dec-08 20:31N 29°48' W 092°05'2 3.3
2017-Dec-08 20:01N 29°49' W 092°03'2 3.4
2017-Dec-08 19:30N 29°49' W 092°01'58 3.3
2017-Dec-08 02:16N 29°34' W 090°57'1 4.6
2017-Dec-08 02:00N 29°34' W 090°56'3 4.5
2017-Dec-08 01:25N 29°32' W 090°53'2 4.2
2017-Dec-08 01:00N 29°32' W 090°51'2 4.3
2017-Dec-08 00:31N 29°32' W 090°49'2 4.1
2017-Dec-08 00:00N 29°32' W 090°46'2 3.7
2017-Dec-07 23:30N 29°34' W 090°45'2 3.4
2017-Dec-07 23:00N 29°34' W 090°43'2 3.6
2017-Dec-07 22:31N 29°36' W 090°43'1 2.3
2017-Dec-07 22:00N 29°37' W 090°42'1 1.1
2017-Dec-07 21:30N 29°36' W 090°41'1 1.1
2017-Dec-07 21:00N 29°36' W 090°41'0 0.9
2017-Dec-07 20:30N 29°36' W 090°40'1 2.0
2017-Dec-07 20:01N 29°36' W 090°39'1 2.3
2017-Dec-07 19:30N 29°35' W 090°38'2 3.8
2017-Dec-07 19:00N 29°35' W 090°36'1 2.8
2017-Dec-07 18:29N 29°34' W 090°34'1 2.6
2017-Dec-07 17:59N 29°34' W 090°33'  
Track history (hours):
 
Tides and Currents Weather Stations Pressure Air Temp Water Temp Dewpoint Dewpoint Depression Visibility Wind Speed Wind Dir Waves Ship Positions

Elizabeth Blieler

Owner: Kelly O Towing LLC, Hull, TX. More information available from US FCC via Universal Licensing System and Coast Guard Vessel Documentation Center.

Last reported at 2017-Dec-15 01:01 UTC. Time now 2018-Feb-22 19:20 UTC.
Position N 29°38' W 091°21'.
Warning: this ship's position is months out of date.

MMSI: 367518460.

Date/timePositionNaut miles runAvg speedWind from/ knotsBaromVisibWave heightAir tempDewpointWater temp
2017-Dec-15 01:01N 29°38' W 091°21'33 4.6
2017-Dec-14 17:46N 29°51' W 091°57'1 5.8
2017-Dec-14 17:31N 29°50' W 091°58'3 5.9
2017-Dec-14 17:01N 29°49' W 092°02'3 5.7
2017-Dec-14 16:30N 29°48' W 092°05'3 5.6
2017-Dec-14 16:00N 29°47' W 092°08'6 4.6
2017-Dec-14 14:46N 29°48' W 092°14'1 5.5
2017-Dec-14 14:30N 29°48' W 092°16'3 5.3
2017-Dec-14 14:00N 29°50' W 092°18'13 4.7
2017-Dec-14 11:13N 29°54' W 092°32'2 5.4
2017-Dec-14 10:48N 29°55' W 092°35'19 4.0
2017-Dec-14 06:05N 29°56' W 092°57'1 4.1
2017-Dec-14 05:49N 29°56' W 092°58'1 4.9
2017-Dec-14 05:30N 29°56' W 092°60'3 5.2
2017-Dec-14 05:01N 29°56' W 093°03'3 5.3
2017-Dec-14 04:30N 29°56' W 093°06'3 5.3
2017-Dec-14 04:00N 29°56' W 093°09'3 5.1
2017-Dec-14 03:30N 29°58' W 093°11'2 4.3
2017-Dec-14 03:00N 29°59' W 093°13'2 4.1
2017-Dec-14 02:30N 30°01' W 093°14'2 4.1
2017-Dec-14 02:00N 30°03' W 093°16'2 4.9
2017-Dec-14 01:31N 30°05' W 093°17'1 2.6
2017-Dec-14 01:00N 30°06' W 093°18'1 1.1
2017-Dec-14 00:30N 30°06' W 093°18'0 0.0
2017-Dec-14 00:00N 30°06' W 093°18'0 0.0
2017-Dec-13 23:31N 30°06' W 093°18'0 0.0
2017-Dec-13 23:00N 30°06' W 093°18'0 0.0
2017-Dec-13 22:30N 30°06' W 093°18'0 0.0
2017-Dec-13 22:00N 30°06' W 093°18'0 0.0
2017-Dec-13 21:30N 30°06' W 093°18'0 0.0
2017-Dec-13 21:01N 30°06' W 093°18'0 0.0
2017-Dec-13 20:31N 30°06' W 093°18'0 0.0
2017-Dec-13 20:01N 30°06' W 093°18'0 0.1
2017-Dec-13 19:31N 30°06' W 093°18'0 0.0
2017-Dec-13 19:00N 30°06' W 093°18'0 0.0
2017-Dec-13 18:31N 30°06' W 093°18'0 0.0
2017-Dec-13 18:00N 30°06' W 093°18'0 0.0
2017-Dec-13 17:31N 30°06' W 093°18'0 0.0
2017-Dec-13 17:00N 30°06' W 093°18'0 0.0
2017-Dec-13 16:30N 30°06' W 093°18'0 0.0
2017-Dec-13 16:00N 30°06' W 093°18'0 0.0
2017-Dec-13 15:30N 30°06' W 093°18'0 0.0
2017-Dec-13 15:00N 30°06' W 093°18'0 0.0
2017-Dec-13 14:30N 30°06' W 093°18'0 0.0
2017-Dec-13 14:00N 30°06' W 093°18'0 0.0
2017-Dec-13 13:30N 30°06' W 093°18'0 0.0
2017-Dec-13 13:01N 30°06' W 093°18'0 0.0
2017-Dec-13 12:30N 30°06' W 093°18'0 0.1
2017-Dec-13 12:00N 30°06' W 093°18'0 0.1
2017-Dec-13 11:30N 30°06' W 093°18'0 0.0
2017-Dec-13 11:01N 30°06' W 093°18'0 0.0
2017-Dec-13 10:31N 30°06' W 093°18'0 0.0
2017-Dec-13 10:00N 30°06' W 093°18'0 0.0
2017-Dec-13 09:30N 30°06' W 093°18'0 0.1
2017-Dec-13 09:00N 30°06' W 093°18'0 0.0
2017-Dec-13 08:31N 30°06' W 093°18'0 0.1
2017-Dec-13 08:01N 30°06' W 093°18'0 0.1
2017-Dec-13 07:30N 30°06' W 093°18'0 0.0
2017-Dec-13 07:00N 30°06' W 093°18'0 0.1
2017-Dec-13 06:30N 30°06' W 093°18'0 0.0
2017-Dec-13 06:01N 30°06' W 093°18'0 0.0
2017-Dec-13 05:30N 30°06' W 093°18'0 0.0
2017-Dec-13 05:01N 30°06' W 093°18'0 0.0
2017-Dec-13 04:30N 30°06' W 093°18'0 0.0
2017-Dec-13 04:00N 30°06' W 093°18'0 0.0
2017-Dec-13 03:31N 30°06' W 093°18'0 0.0
2017-Dec-13 03:01N 30°06' W 093°18'0 0.1
2017-Dec-13 02:30N 30°06' W 093°18'0 0.0
2017-Dec-13 02:01N 30°06' W 093°18'0 0.0
2017-Dec-13 01:31N 30°06' W 093°18'0 0.0
2017-Dec-13 01:01N 30°06' W 093°18'0 0.0
2017-Dec-13 00:31N 30°06' W 093°18'0 0.0
2017-Dec-13 00:01N 30°06' W 093°18'0 0.0
2017-Dec-12 23:30N 30°06' W 093°18'1 2.3
2017-Dec-12 23:00N 30°06' W 093°19'3 5.5
2017-Dec-12 22:31N 30°04' W 093°22'2 3.9
2017-Dec-12 22:00N 30°04' W 093°24'2 4.4
2017-Dec-12 21:30N 30°04' W 093°26'3 5.4
2017-Dec-12 21:00N 30°04' W 093°30'20 0.6
2017-Dec-11 09:13N 29°58' W 093°52'0 0.0
2017-Dec-11 08:58N 29°58' W 093°52'0 0.0
2017-Dec-11 08:30N 29°58' W 093°52'0 0.0
2017-Dec-11 07:59N 29°58' W 093°52'0 0.0
2017-Dec-11 07:28N 29°58' W 093°52'0 0.0
2017-Dec-11 07:00N 29°58' W 093°52'0 0.0
2017-Dec-11 06:28N 29°58' W 093°52'0 0.0
2017-Dec-11 05:57N 29°58' W 093°52'0 0.0
2017-Dec-11 05:28N 29°58' W 093°52'0 0.0
2017-Dec-11 05:00N 29°58' W 093°52'3 0.3
2017-Dec-10 16:14N 29°55' W 093°53'2 7.9
2017-Dec-10 16:00N 29°56' W 093°52'2 3.1
2017-Dec-10 15:30N 29°58' W 093°52'0 0.0
2017-Dec-10 15:01N 29°58' W 093°52'0 0.0
2017-Dec-10 14:30N 29°58' W 093°52'0 0.0
2017-Dec-10 13:46N 29°58' W 093°52'0 0.0
2017-Dec-10 13:30N 29°58' W 093°52'0 0.0
2017-Dec-10 12:58N 29°58' W 093°52'0 0.0
2017-Dec-10 12:23N 29°58' W 093°52'9 0.7
2017-Dec-09 23:59N 30°03' W 093°44'2 4.2
2017-Dec-09 23:26N 30°04' W 093°41'2 4.6
2017-Dec-09 23:00N 30°04' W 093°39'2 4.7
2017-Dec-09 22:30N 30°04' W 093°36'2 3.9
2017-Dec-09 22:00N 30°04' W 093°34'2 3.8
2017-Dec-09 21:31N 30°04' W 093°32'2 3.8
2017-Dec-09 21:01N 30°04' W 093°30'2 3.8
2017-Dec-09 20:31N 30°04' W 093°27'2 3.7
2017-Dec-09 20:01N 30°04' W 093°25'2 3.7
2017-Dec-09 19:31N 30°04' W 093°23'2 3.3
2017-Dec-09 19:01N 30°04' W 093°21'2 3.7
2017-Dec-09 18:31N 30°05' W 093°20'2 3.5
2017-Dec-09 18:01N 30°06' W 093°18'1 2.2
2017-Dec-09 17:30N 30°05' W 093°17'2 4.2
2017-Dec-09 17:01N 30°04' W 093°16'1 2.5
2017-Dec-09 16:31N 30°02' W 093°15'2 3.7
2017-Dec-09 16:01N 30°01' W 093°14'2 3.8
2017-Dec-09 15:30N 29°59' W 093°13'2 4.3
2017-Dec-09 15:01N 29°58' W 093°11'2 4.3
2017-Dec-09 14:31N 29°56' W 093°10'2 4.1
2017-Dec-09 14:00N 29°56' W 093°07'2 4.1
2017-Dec-09 13:30N 29°56' W 093°05'31 3.6
2017-Dec-09 04:59N 29°54' W 092°29'2 3.6
2017-Dec-09 04:26N 29°54' W 092°27'2 3.7
2017-Dec-09 03:57N 29°53' W 092°25'1 3.3
2017-Dec-09 03:31N 29°53' W 092°23'2 3.5
2017-Dec-09 02:49N 29°51' W 092°22'1 3.6
2017-Dec-09 02:31N 29°51' W 092°21'1 2.1
2017-Dec-09 02:01N 29°50' W 092°19'1 2.5
2017-Dec-09 01:31N 29°50' W 092°18'2 3.0
2017-Dec-09 01:01N 29°49' W 092°17'2 3.1
2017-Dec-09 00:31N 29°48' W 092°15'2 3.4
2017-Dec-09 00:01N 29°48' W 092°14'1 2.4
2017-Dec-08 23:31N 29°47' W 092°12'0 0.3
2017-Dec-08 23:00N 29°47' W 092°12'1 1.4
2017-Dec-08 22:31N 29°47' W 092°11'1 2.2
2017-Dec-08 22:01N 29°47' W 092°10'2 3.0
2017-Dec-08 21:31N 29°47' W 092°08'2 3.6
2017-Dec-08 21:01N 29°48' W 092°06'2 3.4
2017-Dec-08 20:31N 29°48' W 092°05'2 3.3
2017-Dec-08 20:01N 29°49' W 092°03'2 3.4
2017-Dec-08 19:30N 29°49' W 092°01'58 3.3
2017-Dec-08 02:16N 29°34' W 090°57'1 4.6
2017-Dec-08 02:00N 29°34' W 090°56'3 4.5
2017-Dec-08 01:25N 29°32' W 090°53'2 4.2
2017-Dec-08 01:00N 29°32' W 090°51'2 4.3
2017-Dec-08 00:31N 29°32' W 090°49'2 4.1
2017-Dec-08 00:00N 29°32' W 090°46'2 3.7
2017-Dec-07 23:30N 29°34' W 090°45'2 3.4
2017-Dec-07 23:00N 29°34' W 090°43'2 3.6
2017-Dec-07 22:31N 29°36' W 090°43'1 2.3
2017-Dec-07 22:00N 29°37' W 090°42'1 1.1
2017-Dec-07 21:30N 29°36' W 090°41'1 1.1
2017-Dec-07 21:00N 29°36' W 090°41'0 0.9
2017-Dec-07 20:30N 29°36' W 090°40'1 2.0
2017-Dec-07 20:01N 29°36' W 090°39'1 2.3
2017-Dec-07 19:30N 29°35' W 090°38'2 3.8
2017-Dec-07 19:00N 29°35' W 090°36'1 2.8
2017-Dec-07 18:29N 29°34' W 090°34'1 2.6
2017-Dec-07 17:59N 29°34' W 090°33'  

Dump ship's entire track history